Time;durP1;ratioP1;P1;durP2;ratioP2;P2;SDS_P1;SDS_P2;PMS_P1;PMS_P2;Temp;Humidity;BMP_temperature;BMP_pressure;BME280_temperature;BME280_humidity;BME280_pressure;Samples;Min_cycle;Max_cycle;Signal;HPM_P1;HPM_P2
2023/05/16 00:01:09;;;;;;;10.48;3.30;;;;;;;;;;4847743;29;20057;-63
2023/05/16 00:03:41;;;;;;;8.68;2.65;;;;;;;;;;4878347;29;20065;-63
2023/05/16 00:06:12;;;;;;;7.45;2.92;;;;;;;;;;4878641;29;20045;-62
2023/05/16 00:08:43;;;;;;;8.70;3.10;;;;;;;;;;4900884;29;20056;-63
2023/05/16 00:11:19;;;;;;;8.85;2.83;;;;;;;;;;4880005;29;20067;-63
2023/05/16 00:13:50;;;;;;;6.05;2.85;;;;;;;;;;4957418;28;20518;-62
2023/05/16 00:16:24;;;;;;;6.95;3.00;;;;;;;;;;4970813;28;20505;-63
2023/05/16 00:18:56;;;;;;;10.10;2.60;;;;;;;;;;4983019;28;20065;-63
2023/05/16 00:21:27;;;;;;;6.45;2.53;;;;;;;;;;5034450;28;20520;-62
2023/05/16 00:23:58;;;;;;;9.43;3.17;;;;;;;;;;4983160;28;20052;-63
2023/05/16 00:26:28;;;;;;;7.60;3.20;;;;;;;;;;4999711;28;20442;-62
2023/05/16 00:28:59;;;;;;;10.32;3.05;;;;;;;;;;4966852;28;20053;-63
2023/05/16 00:31:31;;;;;;;8.98;3.33;;;;;;;;;;4980355;28;20050;-62
2023/05/16 00:34:03;;;;;;;11.57;3.20;;;;;;;;;;4995593;28;20054;-62
2023/05/16 00:36:35;;;;;;;7.15;2.53;;;;;;;;;;4972831;28;20054;-62
2023/05/16 00:39:06;;;;;;;7.88;3.08;;;;;;;;;;4972791;28;20160;-62
2023/05/16 00:41:37;;;;;;;9.77;3.50;;;;;;;;;;4941613;28;20050;-62
2023/05/16 00:44:08;;;;;;;5.85;2.92;;;;;;;;;;4972834;28;20062;-62
2023/05/16 00:46:38;;;;;;;7.20;3.40;;;;;;;;;;4956887;28;20054;-62
2023/05/16 00:49:10;;;;;;;9.20;3.17;;;;;;;;;;4972573;28;20058;-62
2023/05/16 00:51:41;;;;;;;9.80;3.38;;;;;;;;;;4972911;28;20055;-62
2023/05/16 00:54:12;;;;;;;9.43;3.25;;;;;;;;;;4972682;28;20059;-63
2023/05/16 00:56:42;;;;;;;10.68;3.17;;;;;;;;;;4972747;28;20071;-62
2023/05/16 00:59:13;;;;;;;8.98;2.97;;;;;;;;;;4972586;28;20047;-62
2023/05/16 01:01:49;;;;;;;7.97;3.20;;;;;;;;;;4917126;29;20546;-62
2023/05/16 01:04:21;;;;;;;11.68;3.63;;;;;;;;;;4909373;29;20055;-62
2023/05/16 01:06:51;;;;;;;8.38;3.17;;;;;;;;;;4904857;29;20052;-62
2023/05/16 01:09:22;;;;;;;7.93;3.28;;;;;;;;;;4926147;29;20064;-62
2023/05/16 01:12:28;;;;;;;7.75;3.20;;;;;;;;;;4918463;29;20404;-62
2023/05/16 01:15:12;;;;;;;6.15;2.92;;;;;;;;;;4965035;28;20070;-62
2023/05/16 01:18:14;;;;;;;11.00;3.55;;;;;;;;;;4939981;28;20550;-61
2023/05/16 01:20:59;;;;;;;13.98;3.28;;;;;;;;;;4933667;29;20060;-62
2023/05/16 01:23:52;;;;;;;10.95;3.72;;;;;;;;;;4933611;29;20100;-63
2023/05/16 01:26:26;;;;;;;8.68;3.75;;;;;;;;;;4902086;29;20404;-63
2023/05/16 01:28:56;;;;;;;6.05;2.95;;;;;;;;;;4933787;29;20067;-63
2023/05/16 01:31:27;;;;;;;9.75;3.33;;;;;;;;;;4914358;29;20063;-63
2023/05/16 01:33:57;;;;;;;9.30;3.78;;;;;;;;;;4914655;29;20059;-63
2023/05/16 01:36:36;;;;;;;8.73;3.78;;;;;;;;;;4895237;29;20067;-62
2023/05/16 01:39:24;;;;;;;7.25;3.63;;;;;;;;;;4903089;29;20079;-63
2023/05/16 01:42:03;;;;;;;9.07;3.72;;;;;;;;;;4922946;29;20563;-64
2023/05/16 01:45:02;;;;;;;7.13;3.33;;;;;;;;;;4901630;29;20055;-61
2023/05/16 01:47:39;;;;;;;15.45;3.63;;;;;;;;;;4895561;29;20064;-62
2023/05/16 01:50:19;;;;;;;8.27;3.42;;;;;;;;;;4895457;29;20659;-62
2023/05/16 01:53:04;;;;;;;11.73;3.25;;;;;;;;;;4895442;29;20056;-63
2023/05/16 01:55:44;;;;;;;17.13;3.40;;;;;;;;;;4879762;29;20049;-64
2023/05/16 01:58:20;;;;;;;10.57;2.67;;;;;;;;;;4886496;29;20060;-64
2023/05/16 02:00:53;;;;;;;9.10;3.03;;;;;;;;;;4895073;29;20068;-63
2023/05/16 02:03:23;;;;;;;8.77;3.58;;;;;;;;;;4848011;29;20083;-64
2023/05/16 02:05:53;;;;;;;7.80;3.10;;;;;;;;;;4895051;29;20425;-64
2023/05/16 02:08:25;;;;;;;9.50;2.80;;;;;;;;;;4898746;29;20064;-64
2023/05/16 02:10:55;;;;;;;7.68;2.90;;;;;;;;;;4913805;29;20060;-62
2023/05/16 02:13:26;;;;;;;7.80;3.42;;;;;;;;;;4894406;29;20063;-63
2023/05/16 02:15:56;;;;;;;8.65;3.17;;;;;;;;;;4878795;29;20052;-63
2023/05/16 02:18:27;;;;;;;12.00;2.70;;;;;;;;;;4894693;29;20067;-63
2023/05/16 02:20:57;;;;;;;7.75;2.95;;;;;;;;;;4894692;29;20422;-63
2023/05/16 02:23:27;;;;;;;8.57;2.90;;;;;;;;;;4894558;29;20059;-64
2023/05/16 02:25:57;;;;;;;10.02;3.08;;;;;;;;;;4894490;29;20429;-61
2023/05/16 02:28:28;;;;;;;6.15;2.60;;;;;;;;;;4909982;29;20418;-62
2023/05/16 02:31:00;;;;;;;9.18;2.40;;;;;;;;;;4916938;29;20062;-62
2023/05/16 02:33:30;;;;;;;6.07;2.88;;;;;;;;;;4932211;29;20058;-62
2023/05/16 02:36:02;;;;;;;8.90;3.00;;;;;;;;;;4926347;29;20070;-62
2023/05/16 02:38:32;;;;;;;6.07;2.47;;;;;;;;;;4931828;29;20059;-64
2023/05/16 02:41:02;;;;;;;6.22;2.50;;;;;;;;;;4909425;29;20413;-62
2023/05/16 02:43:32;;;;;;;5.15;2.40;;;;;;;;;;4894261;29;20068;-61
2023/05/16 02:46:04;;;;;;;10.40;2.78;;;;;;;;;;4891558;29;20048;-64
2023/05/16 02:48:35;;;;;;;8.52;2.22;;;;;;;;;;4916078;29;20515;-64
2023/05/16 02:51:05;;;;;;;8.52;2.55;;;;;;;;;;4900458;29;20492;-66
2023/05/16 02:53:35;;;;;;;6.60;3.03;;;;;;;;;;4922445;29;20060;-65
2023/05/16 02:56:05;;;;;;;7.13;2.50;;;;;;;;;;4875290;29;20072;-63
2023/05/16 02:58:36;;;;;;;5.47;2.60;;;;;;;;;;4875460;29;20072;-62
2023/05/16 03:01:07;;;;;;;5.72;2.45;;;;;;;;;;4893866;29;20056;-62
2023/05/16 03:03:37;;;;;;;7.35;2.40;;;;;;;;;;4874949;29;20061;-61
2023/05/16 03:06:08;;;;;;;6.13;2.38;;;;;;;;;;4859326;29;20060;-63
2023/05/16 03:08:39;;;;;;;6.28;2.40;;;;;;;;;;4875281;29;20057;-61
2023/05/16 03:11:09;;;;;;;6.22;2.58;;;;;;;;;;4856284;29;20056;-62
2023/05/16 03:13:41;;;;;;;6.68;2.50;;;;;;;;;;4856971;29;20068;-63
2023/05/16 03:16:11;;;;;;;6.25;2.28;;;;;;;;;;4864220;29;20076;-62
2023/05/16 03:18:42;;;;;;;7.88;2.33;;;;;;;;;;4893695;29;20073;-62
2023/05/16 03:21:12;;;;;;;5.47;2.40;;;;;;;;;;4875004;29;20064;-63
2023/05/16 03:23:45;;;;;;;10.15;2.47;;;;;;;;;;4864849;29;20045;-63
2023/05/16 03:26:15;;;;;;;9.15;2.30;;;;;;;;;;4856444;29;20126;-63
2023/05/16 03:28:45;;;;;;;8.70;2.42;;;;;;;;;;4841369;29;20087;-63
2023/05/16 03:31:17;;;;;;;6.43;2.33;;;;;;;;;;4837650;29;20046;-61
2023/05/16 03:33:47;;;;;;;6.72;2.20;;;;;;;;;;4838074;29;20065;-61
2023/05/16 03:36:23;;;;;;;11.57;2.13;;;;;;;;;;4853278;29;20473;-61
2023/05/16 03:38:53;;;;;;;5.57;1.85;;;;;;;;;;4858143;29;20065;-62
2023/05/16 03:41:24;;;;;;;5.55;2.33;;;;;;;;;;4842538;29;20054;-62
2023/05/16 03:43:54;;;;;;;4.57;1.95;;;;;;;;;;4819840;29;20063;-62
2023/05/16 03:46:25;;;;;;;5.70;2.20;;;;;;;;;;4834735;29;20055;-62
2023/05/16 03:48:55;;;;;;;4.50;2.03;;;;;;;;;;4813814;29;20058;-62
2023/05/16 03:51:25;;;;;;;5.00;1.80;;;;;;;;;;4868864;29;20057;-64
2023/05/16 03:53:56;;;;;;;5.20;2.42;;;;;;;;;;4837926;29;20399;-63
2023/05/16 03:56:26;;;;;;;6.72;2.33;;;;;;;;;;4837747;29;20061;-63
2023/05/16 03:58:58;;;;;;;8.65;2.83;;;;;;;;;;4850807;29;20057;-65
2023/05/16 04:01:28;;;;;;;6.35;2.60;;;;;;;;;;4894655;29;20509;-62
2023/05/16 04:03:58;;;;;;;7.45;2.58;;;;;;;;;;4916924;29;20515;-62
2023/05/16 04:06:28;;;;;;;8.27;2.80;;;;;;;;;;4950436;29;20059;-63
2023/05/16 04:08:59;;;;;;;5.43;2.35;;;;;;;;;;4904020;29;20059;-64
2023/05/16 04:11:29;;;;;;;4.30;1.95;;;;;;;;;;4912469;29;20161;-62
2023/05/16 04:14:00;;;;;;;4.15;1.83;;;;;;;;;;4849894;29;20548;-62
2023/05/16 04:16:31;;;;;;;4.45;2.10;;;;;;;;;;4912338;29;20055;-63
2023/05/16 04:19:02;;;;;;;6.95;2.00;;;;;;;;;;4915255;29;20095;-63
2023/05/16 04:21:33;;;;;;;4.45;1.73;;;;;;;;;;4950355;29;20500;-62
2023/05/16 04:24:03;;;;;;;4.95;1.38;;;;;;;;;;4902856;29;20047;-63
2023/05/16 04:26:33;;;;;;;3.50;1.60;;;;;;;;;;4931053;29;20534;-63
2023/05/16 04:29:03;;;;;;;6.40;1.92;;;;;;;;;;4931296;29;20056;-61
2023/05/16 04:31:35;;;;;;;4.13;1.70;;;;;;;;;;4931098;29;20067;-63
2023/05/16 04:34:05;;;;;;;6.70;2.28;;;;;;;;;;4931447;29;20059;-62
2023/05/16 04:36:36;;;;;;;10.60;1.88;;;;;;;;;;4932314;29;20055;-62
2023/05/16 04:39:06;;;;;;;6.68;1.83;;;;;;;;;;4888313;29;20100;-62
2023/05/16 04:41:37;;;;;;;4.65;1.80;;;;;;;;;;4902925;29;20051;-63
2023/05/16 04:44:07;;;;;;;4.13;1.70;;;;;;;;;;4934505;29;20125;-61
2023/05/16 04:46:38;;;;;;;5.63;1.60;;;;;;;;;;4954228;28;20063;-63
2023/05/16 04:49:10;;;;;;;5.90;1.50;;;;;;;;;;4940909;28;20059;-62
2023/05/16 04:51:40;;;;;;;5.18;1.70;;;;;;;;;;4956440;28;20054;-62
2023/05/16 04:54:10;;;;;;;4.78;1.65;;;;;;;;;;4940861;28;20062;-62
2023/05/16 04:56:40;;;;;;;7.80;1.42;;;;;;;;;;4918099;29;20055;-62
2023/05/16 04:59:10;;;;;;;3.45;1.33;;;;;;;;;;4934270;29;20060;-63
2023/05/16 05:01:41;;;;;;;5.00;1.60;;;;;;;;;;4934179;29;20492;-63
2023/05/16 05:04:11;;;;;;;4.22;1.77;;;;;;;;;;4944007;29;20120;-64
2023/05/16 05:06:42;;;;;;;3.30;1.48;;;;;;;;;;4953151;29;20427;-63
2023/05/16 05:09:13;;;;;;;4.75;1.58;;;;;;;;;;4971862;28;20057;-63
2023/05/16 05:11:44;;;;;;;4.18;1.50;;;;;;;;;;4972353;28;20058;-63
2023/05/16 05:14:14;;;;;;;6.18;1.70;;;;;;;;;;4972443;28;20494;-62
2023/05/16 05:16:45;;;;;;;5.03;1.80;;;;;;;;;;4972316;28;20491;-63
2023/05/16 05:19:15;;;;;;;4.63;1.55;;;;;;;;;;4890189;29;20051;-63
2023/05/16 05:21:45;;;;;;;6.50;1.67;;;;;;;;;;4952918;29;20500;-63
2023/05/16 05:24:16;;;;;;;2.90;1.13;;;;;;;;;;4906107;29;20563;-64
2023/05/16 05:26:46;;;;;;;3.25;2.38;;;;;;;;;;4952884;29;20047;-62
2023/05/16 05:29:16;;;;;;;3.88;1.58;;;;;;;;;;4952982;29;20055;-64
2023/05/16 05:31:46;;;;;;;4.32;1.73;;;;;;;;;;4932965;29;20059;-64
2023/05/16 05:34:17;;;;;;;4.38;1.83;;;;;;;;;;4942830;29;20059;-63
2023/05/16 05:36:46;;;;;;;3.15;1.40;;;;;;;;;;4905488;29;20059;-63
2023/05/16 05:39:16;;;;;;;3.30;1.50;;;;;;;;;;4952660;29;20391;-63
2023/05/16 05:41:47;;;;;;;3.72;1.40;;;;;;;;;;4952874;29;20750;-63
2023/05/16 05:44:17;;;;;;;3.22;1.88;;;;;;;;;;4920437;29;20058;-62
2023/05/16 05:46:47;;;;;;;3.38;1.17;;;;;;;;;;4920710;28;20062;-63
2023/05/16 05:49:17;;;;;;;2.45;1.20;;;;;;;;;;4936895;29;20462;-63
2023/05/16 05:51:50;;;;;;;7.05;1.10;;;;;;;;;;4921484;29;20063;-63
2023/05/16 05:54:21;;;;;;;4.07;1.30;;;;;;;;;;4952339;29;20047;-61
2023/05/16 05:56:51;;;;;;;6.28;1.15;;;;;;;;;;4904600;29;20066;-62
2023/05/16 05:59:24;;;;;;;5.13;1.33;;;;;;;;;;4952357;28;20090;-62
2023/05/16 06:01:55;;;;;;;3.72;1.33;;;;;;;;;;4920527;29;20051;-61
2023/05/16 06:04:25;;;;;;;2.58;1.33;;;;;;;;;;4971278;28;20058;-62
2023/05/16 06:06:55;;;;;;;3.30;1.33;;;;;;;;;;4990801;28;20423;-64
2023/05/16 06:09:25;;;;;;;4.15;1.13;;;;;;;;;;5000581;28;20057;-62
2023/05/16 06:11:55;;;;;;;2.28;1.10;;;;;;;;;;4977870;28;20065;-63
2023/05/16 06:14:25;;;;;;;3.78;1.27;;;;;;;;;;4993998;28;20050;-63
2023/05/16 06:16:55;;;;;;;5.35;1.13;;;;;;;;;;5012761;28;20045;-61
2023/05/16 06:19:26;;;;;;;3.30;1.13;;;;;;;;;;4970949;28;20050;-62
2023/05/16 06:21:56;;;;;;;2.58;1.00;;;;;;;;;;4922836;28;20065;-62
2023/05/16 06:24:28;;;;;;;3.47;1.83;;;;;;;;;;4971084;28;20082;-62
2023/05/16 06:26:58;;;;;;;3.33;1.05;;;;;;;;;;4932630;29;20055;-62
2023/05/16 06:29:28;;;;;;;3.00;1.17;;;;;;;;;;4932545;29;20555;-62
2023/05/16 06:31:58;;;;;;;3.63;0.88;;;;;;;;;;4894777;29;20529;-62
2023/05/16 06:34:29;;;;;;;3.63;1.05;;;;;;;;;;4847985;29;20136;-62
2023/05/16 06:37:02;;;;;;;2.13;1.00;;;;;;;;;;4894679;29;20114;-62
2023/05/16 06:39:32;;;;;;;2.97;0.88;;;;;;;;;;4874887;29;20049;-63
2023/05/16 06:42:03;;;;;;;2.53;1.00;;;;;;;;;;4875759;29;20086;-62
2023/05/16 06:44:33;;;;;;;2.85;1.08;;;;;;;;;;4875297;29;20057;-62
2023/05/16 06:47:03;;;;;;;3.42;1.30;;;;;;;;;;4875846;29;20502;-61
2023/05/16 06:49:34;;;;;;;2.17;1.08;;;;;;;;;;4863484;29;20473;-62
2023/05/16 06:52:05;;;;;;;4.43;0.90;;;;;;;;;;4897982;29;20052;-62
2023/05/16 06:54:35;;;;;;;4.50;1.10;;;;;;;;;;4866469;29;20074;-64
2023/05/16 06:57:07;;;;;;;2.38;0.90;;;;;;;;;;4913029;29;20056;-63
2023/05/16 06:59:37;;;;;;;2.13;1.02;;;;;;;;;;4912620;29;20055;-62
2023/05/16 07:02:07;;;;;;;3.40;0.90;;;;;;;;;;4913122;29;20516;-62
2023/05/16 07:04:37;;;;;;;4.00;1.00;;;;;;;;;;4931861;29;20066;-61
2023/05/16 07:07:08;;;;;;;6.53;1.40;;;;;;;;;;4951096;29;20043;-62
2023/05/16 07:09:38;;;;;;;2.05;1.02;;;;;;;;;;4929103;28;20050;-62
2023/05/16 07:12:09;;;;;;;2.85;1.08;;;;;;;;;;4938562;28;20062;-62
2023/05/16 07:14:40;;;;;;;4.47;1.33;;;;;;;;;;4922586;28;20054;-63
2023/05/16 07:17:10;;;;;;;2.13;1.02;;;;;;;;;;4960202;28;20073;-62
2023/05/16 07:19:40;;;;;;;2.10;1.08;;;;;;;;;;5011678;28;20049;-62
2023/05/16 07:22:11;;;;;;;2.17;0.90;;;;;;;;;;4994478;28;20524;-62
2023/05/16 07:24:41;;;;;;;2.60;0.95;;;;;;;;;;4929143;28;20053;-65
2023/05/16 07:27:12;;;;;;;3.28;1.20;;;;;;;;;;5011847;28;20038;-63
2023/05/16 07:29:42;;;;;;;2.30;1.10;;;;;;;;;;4961112;28;20061;-61
2023/05/16 07:32:12;;;;;;;2.80;1.67;;;;;;;;;;5011641;28;20065;-62
2023/05/16 07:34:44;;;;;;;2.55;1.30;;;;;;;;;;5011624;28;20073;-62
2023/05/16 07:37:15;;;;;;;1.92;0.90;;;;;;;;;;5011618;28;20034;-62
2023/05/16 07:39:45;;;;;;;2.05;0.85;;;;;;;;;;5011781;28;20049;-63
2023/05/16 07:42:15;;;;;;;2.17;0.82;;;;;;;;;;5011649;28;20042;-62
2023/05/16 07:44:46;;;;;;;3.53;1.10;;;;;;;;;;5011483;28;20402;-62
2023/05/16 07:47:16;;;;;;;3.00;1.20;;;;;;;;;;4976384;28;20057;-62
2023/05/16 07:49:46;;;;;;;2.40;0.95;;;;;;;;;;5011433;28;20417;-63
2023/05/16 07:52:16;;;;;;;3.22;1.23;;;;;;;;;;5011454;28;20429;-62
2023/05/16 07:54:47;;;;;;;2.22;1.13;;;;;;;;;;5011493;28;20049;-64
2023/05/16 07:57:19;;;;;;;5.45;1.65;;;;;;;;;;4978005;28;20061;-63
2023/05/16 07:59:52;;;;;;;2.83;1.00;;;;;;;;;;5011401;28;20527;-61
2023/05/16 08:02:29;;;;;;;3.38;1.02;;;;;;;;;;4976534;28;20509;-62
2023/05/16 08:04:59;;;;;;;2.92;0.95;;;;;;;;;;5011425;28;20050;-63
2023/05/16 08:07:30;;;;;;;1.63;0.70;;;;;;;;;;4977251;28;20046;-62
2023/05/16 08:10:00;;;;;;;2.58;1.13;;;;;;;;;;5011900;28;20046;-63
2023/05/16 08:12:30;;;;;;;2.17;1.00;;;;;;;;;;4980101;28;20097;-62
2023/05/16 08:15:00;;;;;;;2.40;0.90;;;;;;;;;;4980104;28;20498;-62
2023/05/16 08:17:31;;;;;;;2.80;0.90;;;;;;;;;;4997741;28;20053;-62
2023/05/16 08:20:04;;;;;;;1.58;0.75;;;;;;;;;;5014835;28;20045;-61
2023/05/16 08:22:34;;;;;;;2.28;1.00;;;;;;;;;;4949941;28;20058;-61
2023/05/16 08:25:07;;;;;;;2.03;0.90;;;;;;;;;;5014865;28;20050;-61
2023/05/16 08:27:37;;;;;;;1.90;0.85;;;;;;;;;;5014779;28;20038;-61
2023/05/16 08:30:10;;;;;;;2.28;0.82;;;;;;;;;;5014800;28;20041;-62
2023/05/16 08:32:40;;;;;;;2.35;0.73;;;;;;;;;;4964052;28;20510;-61
2023/05/16 08:35:13;;;;;;;3.72;1.08;;;;;;;;;;4979862;28;20050;-61
2023/05/16 08:37:43;;;;;;;4.50;1.27;;;;;;;;;;4992300;28;20050;-62
2023/05/16 08:40:14;;;;;;;1.85;0.80;;;;;;;;;;4992552;28;20058;-61
2023/05/16 08:42:46;;;;;;;2.25;0.85;;;;;;;;;;4992682;28;20059;-61
2023/05/16 08:45:16;;;;;;;3.25;1.08;;;;;;;;;;4906118;29;20164;-62
2023/05/16 08:47:50;;;;;;;1.73;0.90;;;;;;;;;;4937097;29;20058;-62
2023/05/16 08:50:21;;;;;;;2.35;1.10;;;;;;;;;;4956319;28;20058;-61
2023/05/16 08:52:52;;;;;;;3.20;1.33;;;;;;;;;;4925823;28;20065;-63
2023/05/16 08:55:25;;;;;;;2.38;0.98;;;;;;;;;;4972848;28;20566;-63
2023/05/16 08:57:57;;;;;;;2.03;1.08;;;;;;;;;;4909661;28;20059;-63
2023/05/16 09:00:28;;;;;;;3.20;1.38;;;;;;;;;;4972687;28;20086;-62
2023/05/16 09:02:58;;;;;;;3.13;1.30;;;;;;;;;;4924515;28;20065;-62
2023/05/16 09:05:30;;;;;;;2.03;1.20;;;;;;;;;;4924756;28;20419;-63
2023/05/16 09:08:00;;;;;;;2.25;1.02;;;;;;;;;;4972349;28;20069;-62
2023/05/16 09:10:32;;;;;;;2.80;0.85;;;;;;;;;;4972528;28;20098;-62
2023/05/16 09:13:03;;;;;;;2.55;0.90;;;;;;;;;;4940348;28;20063;-63
2023/05/16 09:15:33;;;;;;;3.92;1.20;;;;;;;;;;4972374;28;20059;-62
2023/05/16 09:18:04;;;;;;;4.85;1.50;;;;;;;;;;4972367;28;20046;-63
2023/05/16 09:20:34;;;;;;;2.58;1.13;;;;;;;;;;4972360;28;20066;-63
2023/05/16 09:23:04;;;;;;;3.92;1.30;;;;;;;;;;4967263;28;20064;-62
2023/05/16 09:25:35;;;;;;;3.40;1.30;;;;;;;;;;5033544;28;20072;-62
2023/05/16 09:28:11;;;;;;;5.28;1.90;;;;;;;;;;5033548;28;20401;-62
2023/05/16 09:30:46;;;;;;;5.15;1.88;;;;;;;;;;5033527;28;20052;-62
2023/05/16 09:33:16;;;;;;;7.72;1.52;;;;;;;;;;4998382;28;20417;-63
2023/05/16 09:35:46;;;;;;;2.55;1.30;;;;;;;;;;4999467;28;20061;-62
2023/05/16 09:38:17;;;;;;;3.35;1.50;;;;;;;;;;4998197;28;20049;-64
2023/05/16 09:40:49;;;;;;;2.08;1.23;;;;;;;;;;5033348;28;20504;-63
2023/05/16 09:43:26;;;;;;;3.63;1.17;;;;;;;;;;5010681;28;20618;-63
2023/05/16 09:45:59;;;;;;;3.08;1.10;;;;;;;;;;4978560;28;20421;-62
2023/05/16 09:48:29;;;;;;;4.13;1.42;;;;;;;;;;4995053;28;20058;-64
2023/05/16 09:51:05;;;;;;;3.25;1.67;;;;;;;;;;4963652;28;20513;-63
2023/05/16 09:53:37;;;;;;;3.00;1.40;;;;;;;;;;4971634;28;20051;-64
2023/05/16 09:56:11;;;;;;;6.10;1.33;;;;;;;;;;4971573;28;20054;-63
2023/05/16 09:58:42;;;;;;;6.10;1.88;;;;;;;;;;4939466;28;20059;-63
2023/05/16 10:01:13;;;;;;;14.15;3.40;;;;;;;;;;4952082;29;20059;-63
2023/05/16 10:03:43;;;;;;;32.78;7.18;;;;;;;;;;4952134;28;20051;-64
2023/05/16 10:06:15;;;;;;;36.42;9.82;;;;;;;;;;4951864;28;20070;-62
2023/05/16 10:08:46;;;;;;;30.42;9.43;;;;;;;;;;4951766;28;20075;-63
2023/05/16 10:11:18;;;;;;;19.85;7.15;;;;;;;;;;4951932;28;20051;-63
2023/05/16 10:13:52;;;;;;;13.68;5.60;;;;;;;;;;4951981;28;20499;-63
2023/05/16 10:16:23;;;;;;;11.98;5.22;;;;;;;;;;4920156;29;20044;-62
2023/05/16 10:18:55;;;;;;;6.28;3.40;;;;;;;;;;4951744;28;20055;-63
2023/05/16 10:21:28;;;;;;;5.47;2.35;;;;;;;;;;4939675;28;20058;-68
2023/05/16 10:24:03;;;;;;;6.00;2.45;;;;;;;;;;4971074;28;20065;-63
2023/05/16 10:26:34;;;;;;;7.07;2.88;;;;;;;;;;4955079;28;20511;-63
2023/05/16 10:29:05;;;;;;;4.55;1.88;;;;;;;;;;4971154;28;20379;-63
2023/05/16 10:31:36;;;;;;;6.38;2.38;;;;;;;;;;4932083;28;20485;-64
2023/05/16 10:34:09;;;;;;;6.72;2.22;;;;;;;;;;4995860;28;20054;-63
2023/05/16 10:36:39;;;;;;;5.68;1.95;;;;;;;;;;4965309;28;20046;-62
2023/05/16 10:39:12;;;;;;;4.47;1.83;;;;;;;;;;5012017;28;20417;-61
2023/05/16 10:41:42;;;;;;;6.85;2.00;;;;;;;;;;4957983;28;20043;-61
2023/05/16 10:44:17;;;;;;;5.78;2.00;;;;;;;;;;4998625;28;20660;-61
2023/05/16 10:46:47;;;;;;;5.43;2.00;;;;;;;;;;4997480;28;20549;-61
2023/05/16 10:49:25;;;;;;;4.15;2.05;;;;;;;;;;4997917;28;20405;-61
2023/05/16 10:52:07;;;;;;;6.85;2.85;;;;;;;;;;4986898;28;20042;-62
2023/05/16 10:54:42;;;;;;;7.43;2.85;;;;;;;;;;4931764;28;20061;-63
2023/05/16 10:57:19;;;;;;;9.70;2.70;;;;;;;;;;4979546;28;20445;-63
2023/05/16 10:59:51;;;;;;;7.22;2.53;;;;;;;;;;4979685;28;20058;-63
2023/05/16 11:02:33;;;;;;;16.38;3.30;;;;;;;;;;4980281;28;20549;-62
2023/05/16 11:05:06;;;;;;;11.50;4.00;;;;;;;;;;4949017;28;20511;-63
2023/05/16 11:07:37;;;;;;;11.57;4.15;;;;;;;;;;4979241;28;20062;-64
2023/05/16 11:10:15;;;;;;;9.93;4.18;;;;;;;;;;4933412;28;20430;-63
2023/05/16 11:12:49;;;;;;;10.65;4.35;;;;;;;;;;4932747;28;20051;-63
2023/05/16 11:15:38;;;;;;;12.38;4.85;;;;;;;;;;4922267;29;20056;-63
2023/05/16 11:18:13;;;;;;;8.93;3.22;;;;;;;;;;4909207;29;20547;-63
2023/05/16 11:20:45;;;;;;;15.07;3.70;;;;;;;;;;4883383;29;20068;-63
2023/05/16 11:23:21;;;;;;;8.50;3.15;;;;;;;;;;4912044;29;20060;-63
2023/05/16 11:25:56;;;;;;;12.07;4.00;;;;;;;;;;4897193;29;20060;-63
2023/05/16 11:28:27;;;;;;;9.48;4.20;;;;;;;;;;4896691;29;20044;-64
2023/05/16 11:30:58;;;;;;;8.77;3.97;;;;;;;;;;4931310;29;20079;-63
2023/05/16 11:33:34;;;;;;;13.73;4.18;;;;;;;;;;4882884;29;20048;-63
2023/05/16 11:36:08;;;;;;;9.57;4.45;;;;;;;;;;4899208;29;20056;-63
2023/05/16 11:38:44;;;;;;;11.07;4.22;;;;;;;;;;4900343;29;20070;-63
2023/05/16 11:41:16;;;;;;;12.05;4.07;;;;;;;;;;4912387;29;20052;-63
2023/05/16 11:43:46;;;;;;;9.88;4.55;;;;;;;;;;4866677;29;20056;-63
2023/05/16 11:46:17;;;;;;;10.05;3.33;;;;;;;;;;4895990;29;20060;-64
2023/05/16 11:48:47;;;;;;;11.68;4.30;;;;;;;;;;4883155;29;20484;-65
2023/05/16 11:51:19;;;;;;;10.57;3.83;;;;;;;;;;4888412;29;20056;-63
2023/05/16 11:53:49;;;;;;;8.82;3.35;;;;;;;;;;4919664;29;20532;-63
2023/05/16 11:56:22;;;;;;;10.82;3.00;;;;;;;;;;4938883;29;20059;-63
2023/05/16 11:58:53;;;;;;;;;;;;;;;;;;4898173;29;20060;-63
2023/05/16 12:01:22;;;;;;;9.05;3.20;;;;;;;;;;4912396;29;19922;-64
2023/05/16 12:03:59;;;;;;;7.65;3.42;;;;;;;;;;4945444;29;20067;-63
2023/05/16 12:06:30;;;;;;;5.28;2.67;;;;;;;;;;4927037;29;20491;-63
2023/05/16 12:09:09;;;;;;;6.72;2.78;;;;;;;;;;4913633;29;20070;-63
2023/05/16 12:11:39;;;;;;;;;;;;;;;;;;4907303;29;20547;-64
2023/05/16 12:14:12;;;;;;;11.93;4.28;;;;;;;;;;4906146;29;19924;-63
2023/05/16 12:16:43;;;;;;;10.15;3.45;;;;;;;;;;4858254;29;20060;-63
2023/05/16 12:19:15;;;;;;;13.98;4.50;;;;;;;;;;4875906;29;20060;-64
2023/05/16 12:21:45;;;;;;;12.52;4.97;;;;;;;;;;4847487;29;20052;-65
2023/05/16 12:24:16;;;;;;;15.30;4.65;;;;;;;;;;4886802;29;20105;-63
2023/05/16 12:26:46;;;;;;;10.02;4.00;;;;;;;;;;4866051;29;20056;-63
2023/05/16 12:29:20;;;;;;;10.05;4.97;;;;;;;;;;4896780;29;20053;-63
2023/05/16 12:31:55;;;;;;;12.63;5.50;;;;;;;;;;4896748;29;20057;-63
2023/05/16 12:34:29;;;;;;;10.95;4.70;;;;;;;;;;4909559;29;20064;-63
2023/05/16 12:37:00;;;;;;;8.55;4.63;;;;;;;;;;4904334;29;20055;-64
2023/05/16 12:39:37;;;;;;;18.25;4.93;;;;;;;;;;4914919;29;20156;-64
2023/05/16 12:42:08;;;;;;;69.55;28.55;;;;;;;;;;4915460;29;20067;-63
2023/05/16 12:44:40;;;;;;;18.25;9.85;;;;;;;;;;4915227;29;20056;-63
2023/05/16 12:47:13;;;;;;;13.85;6.55;;;;;;;;;;4915476;29;20176;-63
2023/05/16 12:49:46;;;;;;;8.73;5.05;;;;;;;;;;4953584;28;20061;-63
2023/05/16 12:52:19;;;;;;;9.75;4.88;;;;;;;;;;4959806;28;20050;-64
2023/05/16 12:54:49;;;;;;;10.02;4.07;;;;;;;;;;4973406;28;20049;-63
2023/05/16 12:57:20;;;;;;;10.70;3.90;;;;;;;;;;5013450;28;20042;-64
2023/05/16 12:59:51;;;;;;;25.75;11.60;;;;;;;;;;5027672;28;20049;-64
2023/05/16 13:02:21;;;;;;;18.50;9.43;;;;;;;;;;4963304;28;20054;-63
2023/05/16 13:04:52;;;;;;;9.45;3.53;;;;;;;;;;4980080;28;20058;-64
2023/05/16 13:07:22;;;;;;;10.80;4.70;;;;;;;;;;4957971;28;20434;-63
2023/05/16 13:09:53;;;;;;;11.77;4.28;;;;;;;;;;4959315;28;20055;-63
2023/05/16 13:12:26;;;;;;;10.15;4.00;;;;;;;;;;4960000;28;20046;-63
2023/05/16 13:14:56;;;;;;;14.40;4.30;;;;;;;;;;4959268;28;20085;-63
2023/05/16 13:17:29;;;;;;;12.60;5.07;;;;;;;;;;4991809;28;20058;-63
2023/05/16 13:20:01;;;;;;;13.68;6.07;;;;;;;;;;4973921;28;20046;-63
2023/05/16 13:22:33;;;;;;;12.65;3.90;;;;;;;;;;4917159;28;20559;-64
2023/05/16 13:25:04;;;;;;;11.88;4.55;;;;;;;;;;4935442;28;20054;-64
2023/05/16 13:27:35;;;;;;;7.50;3.78;;;;;;;;;;4991461;28;20061;-63
2023/05/16 13:30:06;;;;;;;9.63;3.67;;;;;;;;;;4979679;28;20047;-64
2023/05/16 13:32:36;;;;;;;12.60;3.67;;;;;;;;;;4974360;28;20419;-63
2023/05/16 13:35:08;;;;;;;9.50;3.92;;;;;;;;;;4971766;28;20058;-63
2023/05/16 13:37:40;;;;;;;8.35;4.35;;;;;;;;;;4984441;28;20054;-64
2023/05/16 13:40:10;;;;;;;9.68;3.20;;;;;;;;;;4974414;28;20541;-63
2023/05/16 13:42:41;;;;;;;9.82;3.38;;;;;;;;;;4987414;28;20057;-64
2023/05/16 13:45:11;;;;;;;9.77;3.70;;;;;;;;;;4971033;28;20053;-63
2023/05/16 13:47:42;;;;;;;11.65;3.67;;;;;;;;;;5011688;28;20065;-64
2023/05/16 13:50:15;;;;;;;8.13;3.60;;;;;;;;;;4979483;28;20042;-63
2023/05/16 13:52:47;;;;;;;7.32;3.20;;;;;;;;;;4965330;28;20063;-61
2023/05/16 13:55:17;;;;;;;8.55;2.65;;;;;;;;;;4962598;28;20046;-61
2023/05/16 13:57:49;;;;;;;6.65;3.22;;;;;;;;;;4964072;28;20055;-61
2023/05/16 14:00:19;;;;;;;5.55;3.08;;;;;;;;;;4923541;28;20526;-61
2023/05/16 14:02:52;;;;;;;7.55;2.60;;;;;;;;;;4926110;28;20082;-62
2023/05/16 14:05:23;;;;;;;5.32;2.80;;;;;;;;;;4971505;28;20522;-64
2023/05/16 14:07:53;;;;;;;15.93;2.92;;;;;;;;;;4954040;28;20047;-61
2023/05/16 14:10:25;;;;;;;13.43;3.05;;;;;;;;;;4970032;28;20047;-61
2023/05/16 14:12:55;;;;;;;6.55;2.63;;;;;;;;;;4940962;28;20415;-61
2023/05/16 14:15:25;;;;;;;7.45;2.63;;;;;;;;;;4961213;28;20046;-64
2023/05/16 14:17:58;;;;;;;7.38;2.63;;;;;;;;;;4970377;28;20047;-63
2023/05/16 14:20:28;;;;;;;6.88;2.60;;;;;;;;;;4970479;28;20054;-64
2023/05/16 14:22:59;;;;;;;5.57;2.35;;;;;;;;;;4938277;28;20046;-65
2023/05/16 14:25:29;;;;;;;9.43;2.67;;;;;;;;;;4970724;28;20047;-64
2023/05/16 14:27:59;;;;;;;5.07;2.28;;;;;;;;;;4953959;28;20057;-63
2023/05/16 14:30:30;;;;;;;5.18;2.80;;;;;;;;;;4962761;28;20555;-64
2023/05/16 14:33:02;;;;;;;6.90;2.60;;;;;;;;;;4954227;28;20067;-64
2023/05/16 14:35:33;;;;;;;6.85;3.08;;;;;;;;;;4965007;28;20383;-64
2023/05/16 14:38:04;;;;;;;6.78;2.80;;;;;;;;;;4958010;28;20501;-64
2023/05/16 14:40:34;;;;;;;6.30;2.50;;;;;;;;;;4919655;29;20051;-64
2023/05/16 14:43:04;;;;;;;9.98;2.35;;;;;;;;;;4937823;29;20075;-64
2023/05/16 14:45:34;;;;;;;5.53;2.88;;;;;;;;;;4936778;29;20059;-64
2023/05/16 14:48:08;;;;;;;6.90;3.30;;;;;;;;;;4931873;29;20050;-65
2023/05/16 14:50:41;;;;;;;8.15;2.85;;;;;;;;;;4959388;28;20051;-65
2023/05/16 14:53:12;;;;;;;4.38;2.42;;;;;;;;;;4951611;29;20428;-64
2023/05/16 14:55:43;;;;;;;4.28;1.63;;;;;;;;;;4877035;29;20059;-64
2023/05/16 14:58:14;;;;;;;9.77;3.58;;;;;;;;;;4936852;29;20098;-65
2023/05/16 15:00:44;;;;;;;8.63;3.00;;;;;;;;;;4951086;29;20392;-64
2023/05/16 15:03:19;;;;;;;7.25;3.63;;;;;;;;;;4951013;29;20125;-64
2023/05/16 15:05:49;;;;;;;9.60;2.72;;;;;;;;;;4931706;29;20060;-64
2023/05/16 15:08:21;;;;;;;9.77;3.72;;;;;;;;;;4934032;29;20051;-64